sensor_id;sensor_type;location;lat;lon;timestamp;pressure;altitude;pressure_sealevel;temperature;humidity
43115;BME280;28727;50.068;14.452;2023-05-17T00:00:13;99323.28;;;11.66;54.05
43115;BME280;28727;50.068;14.452;2023-05-17T00:02:46;99327.25;;;11.62;53.87
43115;BME280;28727;50.068;14.452;2023-05-17T00:05:18;99328.09;;;11.62;53.50
43115;BME280;28727;50.068;14.452;2023-05-17T00:07:50;99337.69;;;11.63;53.31
43115;BME280;28727;50.068;14.452;2023-05-17T00:10:23;99334.56;;;11.60;52.75
43115;BME280;28727;50.068;14.452;2023-05-17T00:12:55;99337.56;;;11.57;52.65
43115;BME280;28727;50.068;14.452;2023-05-17T00:15:28;99351.31;;;11.52;52.72
43115;BME280;28727;50.068;14.452;2023-05-17T00:18:00;99343.66;;;11.57;52.17
43115;BME280;28727;50.068;14.452;2023-05-17T00:20:32;99342.69;;;11.58;52.21
43115;BME280;28727;50.068;14.452;2023-05-17T00:23:06;99351.59;;;11.57;52.16
43115;BME280;28727;50.068;14.452;2023-05-17T00:25:38;99356.06;;;11.57;52.51
43115;BME280;28727;50.068;14.452;2023-05-17T00:28:10;99348.31;;;11.55;51.67
43115;BME280;28727;50.068;14.452;2023-05-17T00:30:42;99351.97;;;11.54;51.61
43115;BME280;28727;50.068;14.452;2023-05-17T00:33:14;99360.91;;;11.53;51.54
43115;BME280;28727;50.068;14.452;2023-05-17T00:35:45;99354.78;;;11.53;50.06
43115;BME280;28727;50.068;14.452;2023-05-17T00:38:17;99364.41;;;11.45;50.11
43115;BME280;28727;50.068;14.452;2023-05-17T00:40:52;99358.16;;;11.38;49.94
43115;BME280;28727;50.068;14.452;2023-05-17T00:43:24;99356.88;;;11.34;50.37
43115;BME280;28727;50.068;14.452;2023-05-17T00:45:57;99354.06;;;11.36;49.28
43115;BME280;28727;50.068;14.452;2023-05-17T00:48:29;99353.09;;;11.29;49.83
43115;BME280;28727;50.068;14.452;2023-05-17T00:51:01;99359.41;;;11.20;49.57
43115;BME280;28727;50.068;14.452;2023-05-17T00:53:33;99358.56;;;11.19;49.71
43115;BME280;28727;50.068;14.452;2023-05-17T00:56:08;99372.16;;;11.16;49.58
43115;BME280;28727;50.068;14.452;2023-05-17T00:58:40;99378.44;;;11.15;49.65
43115;BME280;28727;50.068;14.452;2023-05-17T01:01:12;99383.56;;;11.08;49.35
43115;BME280;28727;50.068;14.452;2023-05-17T01:03:48;99391.34;;;11.10;49.64
43115;BME280;28727;50.068;14.452;2023-05-17T01:06:20;99390.06;;;11.06;49.58
43115;BME280;28727;50.068;14.452;2023-05-17T01:08:55;99398.31;;;11.03;49.51
43115;BME280;28727;50.068;14.452;2023-05-17T01:16:39;99405.72;;;11.07;49.87
43115;BME280;28727;50.068;14.452;2023-05-17T01:19:30;99412.03;;;11.06;49.50
43115;BME280;28727;50.068;14.452;2023-05-17T01:25:04;99415.97;;;11.02;49.59
43115;BME280;28727;50.068;14.452;2023-05-17T01:27:40;99412.88;;;10.99;49.61
43115;BME280;28727;50.068;14.452;2023-05-17T01:30:18;99401.16;;;10.93;49.93
43115;BME280;28727;50.068;14.452;2023-05-17T01:32:53;99411.41;;;10.88;49.96
43115;BME280;28727;50.068;14.452;2023-05-17T01:35:27;99412.41;;;10.87;49.77
43115;BME280;28727;50.068;14.452;2023-05-17T01:38:01;99408.25;;;10.85;49.64
43115;BME280;28727;50.068;14.452;2023-05-17T01:40:35;99417.38;;;10.82;50.40
43115;BME280;28727;50.068;14.452;2023-05-17T01:43:30;99419.69;;;10.77;50.63
43115;BME280;28727;50.068;14.452;2023-05-17T01:46:22;99423.66;;;10.73;50.50
43115;BME280;28727;50.068;14.452;2023-05-17T01:49:08;99418.88;;;10.68;50.22
43115;BME280;28727;50.068;14.452;2023-05-17T01:52:02;99413.94;;;10.65;50.42
43115;BME280;28727;50.068;14.452;2023-05-17T01:54:46;99414.56;;;10.67;50.72
43115;BME280;28727;50.068;14.452;2023-05-17T01:57:26;99420.22;;;10.64;49.97
43115;BME280;28727;50.068;14.452;2023-05-17T02:00:02;99420.56;;;10.53;49.83
43115;BME280;28727;50.068;14.452;2023-05-17T02:02:44;99411.28;;;10.49;50.22
43115;BME280;28727;50.068;14.452;2023-05-17T02:05:17;99413.47;;;10.46;50.28
43115;BME280;28727;50.068;14.452;2023-05-17T02:07:49;99420.06;;;10.42;50.49
43115;BME280;28727;50.068;14.452;2023-05-17T02:10:21;99425.66;;;10.39;50.23
43115;BME280;28727;50.068;14.452;2023-05-17T02:12:54;99423.19;;;10.37;50.69
43115;BME280;28727;50.068;14.452;2023-05-17T02:15:26;99427.97;;;10.34;50.74
43115;BME280;28727;50.068;14.452;2023-05-17T02:18:03;99430.78;;;10.40;50.81
43115;BME280;28727;50.068;14.452;2023-05-17T02:20:35;99433.59;;;10.31;50.48
43115;BME280;28727;50.068;14.452;2023-05-17T02:23:07;99429.47;;;10.28;50.87
43115;BME280;28727;50.068;14.452;2023-05-17T02:25:38;99431.13;;;10.29;50.57
43115;BME280;28727;50.068;14.452;2023-05-17T02:28:10;99427.16;;;10.25;51.14
43115;BME280;28727;50.068;14.452;2023-05-17T02:30:42;99427.34;;;10.23;50.97
43115;BME280;28727;50.068;14.452;2023-05-17T02:33:15;99423.72;;;10.24;50.87
43115;BME280;28727;50.068;14.452;2023-05-17T02:35:53;99426.66;;;10.21;50.88
43115;BME280;28727;50.068;14.452;2023-05-17T02:38:25;99433.59;;;10.22;50.69
43115;BME280;28727;50.068;14.452;2023-05-17T02:40:57;99438.53;;;10.17;50.65
43115;BME280;28727;50.068;14.452;2023-05-17T02:43:28;99441.66;;;10.13;51.28
43115;BME280;28727;50.068;14.452;2023-05-17T02:46:00;99440.63;;;10.14;50.81
43115;BME280;28727;50.068;14.452;2023-05-17T02:48:35;99442.13;;;10.00;51.15
43115;BME280;28727;50.068;14.452;2023-05-17T02:51:07;99456.13;;;9.93;51.55
43115;BME280;28727;50.068;14.452;2023-05-17T02:53:39;99457.09;;;9.83;51.92
43115;BME280;28727;50.068;14.452;2023-05-17T02:56:11;99464.50;;;9.80;51.62
43115;BME280;28727;50.068;14.452;2023-05-17T02:58:44;99467.47;;;9.77;51.57
43115;BME280;28727;50.068;14.452;2023-05-17T03:01:17;99474.56;;;9.76;52.00
43115;BME280;28727;50.068;14.452;2023-05-17T03:03:49;99471.06;;;9.68;52.53
43115;BME280;28727;50.068;14.452;2023-05-17T03:06:22;99474.03;;;9.65;52.40
43115;BME280;28727;50.068;14.452;2023-05-17T03:08:55;99473.03;;;9.66;53.10
43115;BME280;28727;50.068;14.452;2023-05-17T03:11:27;99466.91;;;9.57;52.58
43115;BME280;28727;50.068;14.452;2023-05-17T03:14:01;99469.53;;;9.57;53.19
43115;BME280;28727;50.068;14.452;2023-05-17T03:16:34;99476.13;;;9.53;52.49
43115;BME280;28727;50.068;14.452;2023-05-17T03:19:06;99478.91;;;9.52;52.77
43115;BME280;28727;50.068;14.452;2023-05-17T03:21:39;99484.50;;;9.49;53.19
43115;BME280;28727;50.068;14.452;2023-05-17T03:24:24;99484.81;;;9.45;53.22
43115;BME280;28727;50.068;14.452;2023-05-17T03:26:56;99478.38;;;9.40;53.60
43115;BME280;28727;50.068;14.452;2023-05-17T03:29:31;99489.22;;;9.37;53.52
43115;BME280;28727;50.068;14.452;2023-05-17T03:32:03;99484.28;;;9.34;53.46
43115;BME280;28727;50.068;14.452;2023-05-17T03:34:36;99482.63;;;9.33;53.18
43115;BME280;28727;50.068;14.452;2023-05-17T03:37:08;99490.03;;;9.29;53.67
43115;BME280;28727;50.068;14.452;2023-05-17T03:39:40;99489.66;;;9.24;54.00
43115;BME280;28727;50.068;14.452;2023-05-17T03:42:12;99493.94;;;9.25;54.03
43115;BME280;28727;50.068;14.452;2023-05-17T03:44:45;99499.38;;;9.24;54.04
43115;BME280;28727;50.068;14.452;2023-05-17T03:47:17;99499.22;;;9.25;53.93
43115;BME280;28727;50.068;14.452;2023-05-17T03:49:49;99501.00;;;9.25;53.63
43115;BME280;28727;50.068;14.452;2023-05-17T03:52:23;99502.16;;;9.22;53.64
43115;BME280;28727;50.068;14.452;2023-05-17T03:54:58;99513.34;;;9.16;54.14
43115;BME280;28727;50.068;14.452;2023-05-17T03:57:30;99508.22;;;9.15;54.37
43115;BME280;28727;50.068;14.452;2023-05-17T04:00:05;99520.88;;;9.11;54.53
43115;BME280;28727;50.068;14.452;2023-05-17T04:02:45;99508.06;;;9.16;54.21
43115;BME280;28727;50.068;14.452;2023-05-17T04:05:18;99506.72;;;9.12;53.91
43115;BME280;28727;50.068;14.452;2023-05-17T04:07:52;99507.56;;;9.13;53.93
43115;BME280;28727;50.068;14.452;2023-05-17T04:10:24;99515.47;;;9.13;54.28
43115;BME280;28727;50.068;14.452;2023-05-17T04:12:56;99520.56;;;9.14;54.01
43115;BME280;28727;50.068;14.452;2023-05-17T04:15:29;99524.34;;;9.12;54.23
43115;BME280;28727;50.068;14.452;2023-05-17T04:18:01;99524.63;;;9.09;54.33
43115;BME280;28727;50.068;14.452;2023-05-17T04:20:34;99512.84;;;9.13;54.36
43115;BME280;28727;50.068;14.452;2023-05-17T04:23:06;99527.69;;;9.22;54.16
43115;BME280;28727;50.068;14.452;2023-05-17T04:25:45;99532.00;;;9.23;53.88
43115;BME280;28727;50.068;14.452;2023-05-17T04:28:19;99539.91;;;9.23;53.90
43115;BME280;28727;50.068;14.452;2023-05-17T04:30:52;99544.19;;;9.24;54.28
43115;BME280;28727;50.068;14.452;2023-05-17T04:33:25;99532.69;;;9.33;54.95
43115;BME280;28727;50.068;14.452;2023-05-17T04:35:58;99540.97;;;9.38;54.23
43115;BME280;28727;50.068;14.452;2023-05-17T04:38:32;99552.81;;;9.34;54.13
43115;BME280;28727;50.068;14.452;2023-05-17T04:41:05;99555.50;;;9.42;54.27
43115;BME280;28727;50.068;14.452;2023-05-17T04:43:40;99560.94;;;9.49;54.48
43115;BME280;28727;50.068;14.452;2023-05-17T04:46:19;99565.25;;;9.50;54.25
43115;BME280;28727;50.068;14.452;2023-05-17T04:48:51;99570.53;;;9.50;54.51
43115;BME280;28727;50.068;14.452;2023-05-17T04:51:24;99578.44;;;9.50;54.73
43115;BME280;28727;50.068;14.452;2023-05-17T04:53:58;99584.59;;;9.58;54.04
43115;BME280;28727;50.068;14.452;2023-05-17T04:56:35;99592.50;;;9.58;54.28
43115;BME280;28727;50.068;14.452;2023-05-17T04:59:15;99589.25;;;9.64;54.13
43115;BME280;28727;50.068;14.452;2023-05-17T05:01:56;99590.91;;;9.65;53.95
43115;BME280;28727;50.068;14.452;2023-05-17T05:04:28;99592.03;;;9.63;54.02
43115;BME280;28727;50.068;14.452;2023-05-17T05:07:00;99592.19;;;9.61;54.76
43115;BME280;28727;50.068;14.452;2023-05-17T05:09:32;99602.44;;;9.64;54.60
43115;BME280;28727;50.068;14.452;2023-05-17T05:12:05;99602.78;;;9.69;54.67
43115;BME280;28727;50.068;14.452;2023-05-17T05:14:37;99615.84;;;9.79;55.41
43115;BME280;28727;50.068;14.452;2023-05-17T05:17:10;99614.72;;;9.81;54.98
43115;BME280;28727;50.068;14.452;2023-05-17T05:19:44;99630.91;;;9.86;55.61
43115;BME280;28727;50.068;14.452;2023-05-17T05:22:16;99625.16;;;9.91;55.57
43115;BME280;28727;50.068;14.452;2023-05-17T05:24:50;99631.41;;;9.90;55.50
43115;BME280;28727;50.068;14.452;2023-05-17T05:27:22;99629.28;;;9.94;55.59
43115;BME280;28727;50.068;14.452;2023-05-17T05:29:55;99628.50;;;10.01;56.05
43115;BME280;28727;50.068;14.452;2023-05-17T05:32:28;99632.78;;;10.02;55.51
43115;BME280;28727;50.068;14.452;2023-05-17T05:34:59;99643.53;;;10.01;56.26
43115;BME280;28727;50.068;14.452;2023-05-17T05:37:34;99634.09;;;9.98;55.98
43115;BME280;28727;50.068;14.452;2023-05-17T05:40:07;99627.50;;;10.02;55.95
43115;BME280;28727;50.068;14.452;2023-05-17T05:42:41;99646.72;;;10.12;55.78
43115;BME280;28727;50.068;14.452;2023-05-17T05:45:13;99651.41;;;10.26;55.60
43115;BME280;28727;50.068;14.452;2023-05-17T05:47:50;99650.56;;;10.26;55.59
43115;BME280;28727;50.068;14.452;2023-05-17T05:50:24;99647.53;;;10.47;55.65
43115;BME280;28727;50.068;14.452;2023-05-17T05:53:00;99652.31;;;10.51;54.86
43115;BME280;28727;50.068;14.452;2023-05-17T05:55:52;99667.50;;;10.57;54.97
43115;BME280;28727;50.068;14.452;2023-05-17T05:58:27;99671.38;;;10.71;54.89
43115;BME280;28727;50.068;14.452;2023-05-17T06:01:00;99669.06;;;10.92;54.72
43115;BME280;28727;50.068;14.452;2023-05-17T06:03:37;99667.75;;;10.96;54.52
43115;BME280;28727;50.068;14.452;2023-05-17T06:06:13;99670.25;;;11.06;54.29
43115;BME280;28727;50.068;14.452;2023-05-17T06:08:47;99677.03;;;11.00;54.15
43115;BME280;28727;50.068;14.452;2023-05-17T06:11:19;99675.53;;;10.98;54.69
43115;BME280;28727;50.068;14.452;2023-05-17T06:13:51;99672.72;;;11.16;54.41
43115;BME280;28727;50.068;14.452;2023-05-17T06:16:23;99670.91;;;11.16;54.66
43115;BME280;28727;50.068;14.452;2023-05-17T06:18:55;99675.03;;;11.27;54.78
43115;BME280;28727;50.068;14.452;2023-05-17T06:21:29;99664.63;;;11.33;54.48
43115;BME280;28727;50.068;14.452;2023-05-17T06:24:05;99685.63;;;11.43;55.75
43115;BME280;28727;50.068;14.452;2023-05-17T06:26:37;99673.03;;;11.61;54.16
43115;BME280;28727;50.068;14.452;2023-05-17T06:29:09;99678.69;;;11.66;54.00
43115;BME280;28727;50.068;14.452;2023-05-17T06:31:42;99673.53;;;11.81;53.62
43115;BME280;28727;50.068;14.452;2023-05-17T06:34:16;99677.75;;;12.14;53.35
43115;BME280;28727;50.068;14.452;2023-05-17T06:36:48;99685.16;;;12.27;52.55
43115;BME280;28727;50.068;14.452;2023-05-17T06:39:20;99683.66;;;12.32;52.03
43115;BME280;28727;50.068;14.452;2023-05-17T06:41:52;99687.56;;;12.45;52.09
43115;BME280;28727;50.068;14.452;2023-05-17T06:44:24;99693.16;;;12.58;52.00
43115;BME280;28727;50.068;14.452;2023-05-17T06:46:58;99688.31;;;12.92;51.11
43115;BME280;28727;50.068;14.452;2023-05-17T06:49:31;99687.38;;;13.08;50.78
43115;BME280;28727;50.068;14.452;2023-05-17T06:52:03;99691.00;;;13.15;51.21
43115;BME280;28727;50.068;14.452;2023-05-17T06:54:36;99680.31;;;13.83;53.72
43115;BME280;28727;50.068;14.452;2023-05-17T06:57:09;99685.00;;;14.55;51.31
43115;BME280;28727;50.068;14.452;2023-05-17T06:59:41;99676.38;;;15.10;50.77
43115;BME280;28727;50.068;14.452;2023-05-17T07:02:13;99692.69;;;15.64;49.88
43115;BME280;28727;50.068;14.452;2023-05-17T07:04:45;99685.22;;;15.81;47.84
43115;BME280;28727;50.068;14.452;2023-05-17T07:07:17;99678.25;;;15.80;46.96
43115;BME280;28727;50.068;14.452;2023-05-17T07:09:49;99678.16;;;15.94;47.61
43115;BME280;28727;50.068;14.452;2023-05-17T07:12:23;99675.06;;;16.66;45.01
43115;BME280;28727;50.068;14.452;2023-05-17T07:14:55;99674.69;;;16.83;45.36
43115;BME280;28727;50.068;14.452;2023-05-17T07:17:28;99666.53;;;17.10;44.41
43115;BME280;28727;50.068;14.452;2023-05-17T07:20:00;99673.16;;;17.47;43.43
43115;BME280;28727;50.068;14.452;2023-05-17T07:22:32;99677.66;;;18.06;43.37
43115;BME280;28727;50.068;14.452;2023-05-17T07:25:04;99671.47;;;18.06;43.59
43115;BME280;28727;50.068;14.452;2023-05-17T07:27:37;99668.25;;;17.90;42.31
43115;BME280;28727;50.068;14.452;2023-05-17T07:30:12;99680.34;;;17.73;42.01
43115;BME280;28727;50.068;14.452;2023-05-17T07:32:44;99684.69;;;17.81;42.52
43115;BME280;28727;50.068;14.452;2023-05-17T07:35:16;99682.38;;;18.11;42.03
43115;BME280;28727;50.068;14.452;2023-05-17T07:37:54;99679.56;;;18.50;41.58
43115;BME280;28727;50.068;14.452;2023-05-17T07:40:27;99688.59;;;18.69;40.71
43115;BME280;28727;50.068;14.452;2023-05-17T07:42:59;99690.91;;;18.59;40.77
43115;BME280;28727;50.068;14.452;2023-05-17T07:45:33;99685.84;;;18.18;40.50
43115;BME280;28727;50.068;14.452;2023-05-17T07:48:05;99692.09;;;17.72;41.47
43115;BME280;28727;50.068;14.452;2023-05-17T07:50:37;99693.31;;;17.43;41.44
43115;BME280;28727;50.068;14.452;2023-05-17T07:53:10;99692.25;;;17.44;41.71
43115;BME280;28727;50.068;14.452;2023-05-17T07:55:42;99690.66;;;17.63;40.50
43115;BME280;28727;50.068;14.452;2023-05-17T07:58:14;99683.22;;;17.52;41.49
43115;BME280;28727;50.068;14.452;2023-05-17T08:00:49;99670.91;;;17.90;40.57
43115;BME280;28727;50.068;14.452;2023-05-17T08:03:21;99680.31;;;18.06;41.12
43115;BME280;28727;50.068;14.452;2023-05-17T08:05:54;99682.06;;;18.45;40.74
43115;BME280;28727;50.068;14.452;2023-05-17T08:08:26;99681.72;;;18.22;40.19
43115;BME280;28727;50.068;14.452;2023-05-17T08:10:58;99685.47;;;18.01;40.23
43115;BME280;28727;50.068;14.452;2023-05-17T08:13:30;99695.16;;;17.63;40.35
43115;BME280;28727;50.068;14.452;2023-05-17T08:16:02;99688.34;;;17.14;41.93
43115;BME280;28727;50.068;14.452;2023-05-17T08:18:50;99696.50;;;16.99;42.13
43115;BME280;28727;50.068;14.452;2023-05-17T08:21:23;99694.47;;;17.14;41.49
43115;BME280;28727;50.068;14.452;2023-05-17T08:23:56;99703.69;;;16.99;41.81
43115;BME280;28727;50.068;14.452;2023-05-17T08:26:28;99706.53;;;16.97;41.83
43115;BME280;28727;50.068;14.452;2023-05-17T08:29:03;99710.25;;;17.03;42.07
43115;BME280;28727;50.068;14.452;2023-05-17T08:31:35;99708.16;;;16.92;41.25
43115;BME280;28727;50.068;14.452;2023-05-17T08:34:10;99717.63;;;16.47;42.31
43115;BME280;28727;50.068;14.452;2023-05-17T08:36:43;99707.56;;;16.14;41.61
43115;BME280;28727;50.068;14.452;2023-05-17T08:39:19;99706.41;;;15.89;42.13
43115;BME280;28727;50.068;14.452;2023-05-17T08:41:56;99702.97;;;15.95;41.85
43115;BME280;28727;50.068;14.452;2023-05-17T08:44:30;99702.00;;;16.09;41.93
43115;BME280;28727;50.068;14.452;2023-05-17T08:47:03;99709.16;;;16.02;42.01
43115;BME280;28727;50.068;14.452;2023-05-17T08:49:37;99726.13;;;15.94;42.45
43115;BME280;28727;50.068;14.452;2023-05-17T08:52:10;99718.41;;;16.06;41.75
43115;BME280;28727;50.068;14.452;2023-05-17T08:54:42;99722.38;;;15.89;42.07
43115;BME280;28727;50.068;14.452;2023-05-17T08:57:15;99718.66;;;15.62;42.71
43115;BME280;28727;50.068;14.452;2023-05-17T08:59:53;99723.53;;;15.16;44.42
43115;BME280;28727;50.068;14.452;2023-05-17T09:02:27;99706.41;;;14.83;43.80
43115;BME280;28727;50.068;14.452;2023-05-17T09:05:01;99716.13;;;14.61;45.43
43115;BME280;28727;50.068;14.452;2023-05-17T09:07:36;99714.44;;;14.39;46.04
43115;BME280;28727;50.068;14.452;2023-05-17T09:10:10;99717.34;;;14.44;46.05
43115;BME280;28727;50.068;14.452;2023-05-17T09:12:44;99719.44;;;14.63;45.73
43115;BME280;28727;50.068;14.452;2023-05-17T09:15:18;99719.97;;;14.88;45.39
43115;BME280;28727;50.068;14.452;2023-05-17T09:17:52;99713.47;;;15.11;44.26
43115;BME280;28727;50.068;14.452;2023-05-17T09:20:26;99725.03;;;15.04;44.15
43115;BME280;28727;50.068;14.452;2023-05-17T09:23:10;99722.03;;;14.92;43.89
43115;BME280;28727;50.068;14.452;2023-05-17T09:25:48;99721.53;;;14.67;45.26
43115;BME280;28727;50.068;14.452;2023-05-17T09:28:20;99726.16;;;14.44;46.00
43115;BME280;28727;50.068;14.452;2023-05-17T09:30:52;99735.22;;;14.50;46.69
43115;BME280;28727;50.068;14.452;2023-05-17T09:33:25;99730.84;;;14.42;46.41
43115;BME280;28727;50.068;14.452;2023-05-17T09:35:57;99731.91;;;14.33;45.97
43115;BME280;28727;50.068;14.452;2023-05-17T09:38:32;99733.09;;;14.30;46.54
43115;BME280;28727;50.068;14.452;2023-05-17T09:41:05;99730.44;;;14.30;46.41
43115;BME280;28727;50.068;14.452;2023-05-17T09:43:37;99741.97;;;14.23;46.90
43115;BME280;28727;50.068;14.452;2023-05-17T09:46:09;99738.16;;;14.40;46.43
43115;BME280;28727;50.068;14.452;2023-05-17T09:48:52;99740.44;;;14.43;45.67
43115;BME280;28727;50.068;14.452;2023-05-17T09:51:46;99741.19;;;14.52;45.33
43115;BME280;28727;50.068;14.452;2023-05-17T09:54:18;99732.47;;;14.43;44.78
43115;BME280;28727;50.068;14.452;2023-05-17T09:56:54;99740.00;;;14.40;44.33
43115;BME280;28727;50.068;14.452;2023-05-17T09:59:28;99742.25;;;14.28;45.21
43115;BME280;28727;50.068;14.452;2023-05-17T10:02:01;99730.34;;;14.24;45.45
43115;BME280;28727;50.068;14.452;2023-05-17T10:04:36;99731.69;;;14.20;46.34
43115;BME280;28727;50.068;14.452;2023-05-17T10:07:09;99730.72;;;14.35;46.32
43115;BME280;28727;50.068;14.452;2023-05-17T10:09:41;99732.84;;;14.40;45.74
43115;BME280;28727;50.068;14.452;2023-05-17T10:12:18;99730.38;;;14.39;45.12
43115;BME280;28727;50.068;14.452;2023-05-17T10:14:54;99727.78;;;14.30;45.27
43115;BME280;28727;50.068;14.452;2023-05-17T10:17:30;99724.31;;;14.59;44.55
43115;BME280;28727;50.068;14.452;2023-05-17T10:20:09;99724.88;;;14.91;44.51
43115;BME280;28727;50.068;14.452;2023-05-17T10:22:50;99728.22;;;15.14;43.48
43115;BME280;28727;50.068;14.452;2023-05-17T10:25:22;99732.16;;;15.18;43.42
43115;BME280;28727;50.068;14.452;2023-05-17T10:27:55;99729.44;;;15.11;43.83
43115;BME280;28727;50.068;14.452;2023-05-17T10:30:28;99732.91;;;15.12;44.10
43115;BME280;28727;50.068;14.452;2023-05-17T10:33:00;99730.63;;;15.09;44.53
43115;BME280;28727;50.068;14.452;2023-05-17T10:35:37;99725.03;;;15.04;43.87
43115;BME280;28727;50.068;14.452;2023-05-17T10:38:11;99738.84;;;14.93;44.94
43115;BME280;28727;50.068;14.452;2023-05-17T10:40:47;99737.63;;;14.59;45.90
43115;BME280;28727;50.068;14.452;2023-05-17T10:43:23;99738.91;;;14.49;46.51
43115;BME280;28727;50.068;14.452;2023-05-17T10:45:55;99742.19;;;14.51;46.49
43115;BME280;28727;50.068;14.452;2023-05-17T10:48:28;99730.72;;;14.50;46.43
43115;BME280;28727;50.068;14.452;2023-05-17T10:51:06;99720.56;;;14.54;46.37
43115;BME280;28727;50.068;14.452;2023-05-17T10:56:38;99719.03;;;14.81;44.92
43115;BME280;28727;50.068;14.452;2023-05-17T10:59:24;99720.53;;;14.68;45.14
43115;BME280;28727;50.068;14.452;2023-05-17T11:02:05;99717.69;;;14.70;45.44
43115;BME280;28727;50.068;14.452;2023-05-17T11:04:42;99722.44;;;14.74;45.96
43115;BME280;28727;50.068;14.452;2023-05-17T11:12:41;99711.59;;;14.55;45.43
43115;BME280;28727;50.068;14.452;2023-05-17T11:15:14;99704.78;;;14.52;45.82
43115;BME280;28727;50.068;14.452;2023-05-17T11:17:52;99716.78;;;14.63;46.39
43115;BME280;28727;50.068;14.452;2023-05-17T11:23:07;99711.88;;;14.96;45.00
43115;BME280;28727;50.068;14.452;2023-05-17T11:25:46;99718.81;;;14.97;45.27
43115;BME280;28727;50.068;14.452;2023-05-17T11:28:20;99704.59;;;15.04;44.43
43115;BME280;28727;50.068;14.452;2023-05-17T11:30:59;99715.22;;;15.04;44.16
43115;BME280;28727;50.068;14.452;2023-05-17T11:33:42;99718.31;;;15.08;43.57
43115;BME280;28727;50.068;14.452;2023-05-17T11:36:21;99712.47;;;15.12;44.68
43115;BME280;28727;50.068;14.452;2023-05-17T11:39:21;99709.00;;;15.54;45.33
43115;BME280;28727;50.068;14.452;2023-05-17T11:41:54;99712.00;;;15.73;45.16
43115;BME280;28727;50.068;14.452;2023-05-17T11:44:31;99707.28;;;16.03;45.18
43115;BME280;28727;50.068;14.452;2023-05-17T11:47:05;99711.44;;;16.05;43.26
43115;BME280;28727;50.068;14.452;2023-05-17T11:49:40;99711.00;;;16.08;42.95
43115;BME280;28727;50.068;14.452;2023-05-17T11:52:15;99714.22;;;15.97;43.22
43115;BME280;28727;50.068;14.452;2023-05-17T11:54:48;99714.03;;;15.98;42.93
43115;BME280;28727;50.068;14.452;2023-05-17T11:57:21;99722.84;;;15.99;41.85
43115;BME280;28727;50.068;14.452;2023-05-17T12:00:03;99722.09;;;16.05;41.74
43115;BME280;28727;50.068;14.452;2023-05-17T12:02:54;99730.09;;;15.77;41.56
43115;BME280;28727;50.068;14.452;2023-05-17T12:05:29;99732.47;;;15.51;42.35
43115;BME280;28727;50.068;14.452;2023-05-17T12:08:02;99733.94;;;15.32;42.73
43115;BME280;28727;50.068;14.452;2023-05-17T12:10:34;99739.06;;;15.12;43.17
43115;BME280;28727;50.068;14.452;2023-05-17T12:13:08;99736.81;;;14.95;43.17
43115;BME280;28727;50.068;14.452;2023-05-17T12:15:44;99742.41;;;14.85;43.92
43115;BME280;28727;50.068;14.452;2023-05-17T12:18:19;99739.75;;;14.85;43.52
43115;BME280;28727;50.068;14.452;2023-05-17T12:20:55;99736.66;;;14.82;42.88
43115;BME280;28727;50.068;14.452;2023-05-17T12:23:32;99738.50;;;14.81;42.95
43115;BME280;28727;50.068;14.452;2023-05-17T12:28:43;99739.84;;;14.92;42.99
43115;BME280;28727;50.068;14.452;2023-05-17T12:31:19;99753.97;;;14.92;42.65
43115;BME280;28727;50.068;14.452;2023-05-17T12:33:53;99744.72;;;14.88;42.55
43115;BME280;28727;50.068;14.452;2023-05-17T12:36:27;99754.13;;;14.55;43.27
43115;BME280;28727;50.068;14.452;2023-05-17T12:39:01;99748.06;;;14.46;43.20
43115;BME280;28727;50.068;14.452;2023-05-17T12:41:33;99748.41;;;14.43;43.75
43115;BME280;28727;50.068;14.452;2023-05-17T12:44:06;99753.00;;;14.49;43.77
43115;BME280;28727;50.068;14.452;2023-05-17T12:46:47;99756.97;;;14.53;43.65
43115;BME280;28727;50.068;14.452;2023-05-17T12:49:24;99754.00;;;14.63;43.47
43115;BME280;28727;50.068;14.452;2023-05-17T12:52:02;99759.81;;;14.66;43.65
43115;BME280;28727;50.068;14.452;2023-05-17T12:54:38;99750.69;;;14.75;43.55
43115;BME280;28727;50.068;14.452;2023-05-17T12:57:12;99750.31;;;14.79;43.02
43115;BME280;28727;50.068;14.452;2023-05-17T12:59:48;99745.94;;;14.71;43.99
43115;BME280;28727;50.068;14.452;2023-05-17T13:02:21;99739.41;;;14.73;44.50
43115;BME280;28727;50.068;14.452;2023-05-17T13:04:57;99736.66;;;14.82;44.73
43115;BME280;28727;50.068;14.452;2023-05-17T13:07:29;99745.75;;;14.72;45.00
43115;BME280;28727;50.068;14.452;2023-05-17T13:10:01;99745.13;;;14.70;44.41
43115;BME280;28727;50.068;14.452;2023-05-17T13:12:33;99749.44;;;14.57;44.09
43115;BME280;28727;50.068;14.452;2023-05-17T13:15:09;99745.50;;;14.53;44.92
43115;BME280;28727;50.068;14.452;2023-05-17T13:17:46;99754.84;;;14.63;44.34
43115;BME280;28727;50.068;14.452;2023-05-17T13:20:20;99742.53;;;14.77;44.36
43115;BME280;28727;50.068;14.452;2023-05-17T13:22:53;99744.91;;;14.87;44.32
43115;BME280;28727;50.068;14.452;2023-05-17T13:25:25;99742.13;;;14.95;43.65
43115;BME280;28727;50.068;14.452;2023-05-17T13:27:56;99737.06;;;15.00;42.95
43115;BME280;28727;50.068;14.452;2023-05-17T13:30:31;99733.69;;;14.91;43.26
43115;BME280;28727;50.068;14.452;2023-05-17T13:33:03;99747.47;;;14.95;43.57
43115;BME280;28727;50.068;14.452;2023-05-17T13:35:35;99751.22;;;15.00;43.28
43115;BME280;28727;50.068;14.452;2023-05-17T13:38:09;99749.00;;;15.04;43.73
43115;BME280;28727;50.068;14.452;2023-05-17T13:40:42;99738.81;;;15.07;44.15
43115;BME280;28727;50.068;14.452;2023-05-17T13:43:14;99738.25;;;15.12;43.86
43115;BME280;28727;50.068;14.452;2023-05-17T13:45:47;99730.13;;;15.20;43.96
43115;BME280;28727;50.068;14.452;2023-05-17T13:48:23;99737.09;;;15.21;43.71
43115;BME280;28727;50.068;14.452;2023-05-17T13:50:55;99729.94;;;15.22;42.80